Home > Products > Valid Products > SSM

000
SMZS01 NSTU 211751
SSMPPG
AAXX 21184
91765 32569 41111 10265 20218 30119 40122 51010 83101 333 562/9 555
92118=




000
SMZS01 NSTU 211217
SSMPPG
AAXX 21124
91765 32566 11410 10265 20206 30115 40119 56017 81100 333 10301
563// 58006 555 92112=




000
SMZS01 NSTU 210553
SSMPPG
AAXX 21064
91765 32567 31210 10270 20224 30120 40124 52014 83100 333 563//
70000 555 92106=




000
SMZS01 NSTU 202358
SSMPPG
AAXX 21004
91765 32569 61410 10301 20240 30117 40120 57014 83411 333 20263
56399 58007 555 92100=




000
SMZS01 NSTU 201758
SSMPPG
AAXX 20184
91765 32569 61109 10275 20233 30119 40122 51019 83171 333 56299 555
92018=




000
SMZS01 NSTU 201253
SSMPPG
AAXX 20124
91765 32566 61111 10266 20233 30110 40113 56017 82101 333 10300
562/9 59007 555 92012=




000
SMZS01 NSTU 200558
SSMPPG
AAXX 20064
91765 32566 81309 10272 20231 30113 40117 52014 82171 333 56299
70000 555 92006=





000
SMZS01 NSTU 200558
SSMPPG
AAXX 20064
91765 32566 81309 10272 20231 30113 40117 52014 82171 333 56299
70000 555 92006=





000
SMZS01 NSTU 192356
SSMPPG
AAXX 20004
91765 32569 31307 10297 20241 30110 40113 57017 81141 333 20260
56399 59009 555 92000=




000
SMZS01 NSTU 192356
SSMPPG
AAXX 20004
91765 32569 31307 10297 20241 30110 40113 57017 81141 333 20260
56399 59009 555 92000=




000
SMZS01 NSTU 191758
SSMPPG
AAXX 19184
91765 32569 51108 10270 20217 30120 40124 51014 81102 333 562/9 555
91918=




000
SMZS01 NSTU 191157
SSMPPG
AAXX 19124
91765 32566 31013 10263 20219 30117 40120 56012 81101 333 10299
562/9 59005 70005 555 91912=




000
SMZS01 NSTU 190607
SSMPPG
AAXX 19064
91765 32566 71115 10270 20222 30108 40112 51005 82101 333 562/9
70013 555 91906=





000
SMZS01 NSTU 190014
SSMPPG
AAXX 19004
91765 11469 81315 10292 20243 30119 40122 56017 60014 70282 86805
333 20254 563/9 58009 70013 555 91900=




    US Dept of Commerce
    National Oceanic and Atmospheric Administration
    National Weather Service
    1325 East West Highway
    Silver Spring, MD 20910
    Page Author: NWS Internet Services Team
Disclaimer
Information Quality
Credits
Glossary
Privacy Policy
Freedom of Information Act (FOIA)
About Us
Career Opportunities